Kirishima Maru No.5 — JD2506 — position and weather

sailwx.info

Track history (hours):
 
Tides and Currents Weather Stations Pressure Air Temp Water Temp Dewpoint Dewpoint Depression Visibility Wind Speed Wind Dir Waves Ship Positions

Kirishima Maru No.5

Last reported at 2015-Jun-30 16:30 UTC. Time now 2015-Jul-01 16:58 UTC.
Position N 36°07' E 141°00'.

Length 105 m; draft 5.3 m.

Type: Tanker. MMSI: 431000338.

Date/timePositionNaut miles runAvg speedWind from/ knotsBaromVisibWave heightAir tempDewpointWater temp
2015-Jun-30 16:30N 36°07' E 141°00'1414.4
2015-Jun-30 15:33N 35°54' E 140°59'3114.5
2015-Jun-30 13:23N 35°25' E 140°44'1515.1
2015-Jun-30 12:24N 35°13' E 140°33'1615.2
2015-Jun-30 11:21N 35°01' E 140°20'1214.9
2015-Jun-30 10:32N 34°55' E 140°07'1514.5
2015-Jun-30 09:30N 34°48' E 139°51'24512.7
2015-Jun-29 14:12N 34°02' E 134°59'1015.1
2015-Jun-29 13:33N 34°11' E 134°59'1514.5
2015-Jun-29 12:29N 34°27' E 135°01'1010.6
2015-Jun-29 11:31N 34°37' E 134°58'  
Track history (hours):
 
Tides and Currents Weather Stations Pressure Air Temp Water Temp Dewpoint Dewpoint Depression Visibility Wind Speed Wind Dir Waves Ship Positions

Kirishima Maru No.5

Last reported at 2015-Jun-30 16:30 UTC. Time now 2015-Jul-01 16:58 UTC.
Position N 36°07' E 141°00'.

Length 105 m; draft 5.3 m.

Type: Tanker. MMSI: 431000338.

Date/timePositionNaut miles runAvg speedWind from/ knotsBaromVisibWave heightAir tempDewpointWater temp
2015-Jun-30 16:30N 36°07' E 141°00'1414.4
2015-Jun-30 15:33N 35°54' E 140°59'3114.5
2015-Jun-30 13:23N 35°25' E 140°44'1515.1
2015-Jun-30 12:24N 35°13' E 140°33'1615.2
2015-Jun-30 11:21N 35°01' E 140°20'1214.9
2015-Jun-30 10:32N 34°55' E 140°07'1514.5
2015-Jun-30 09:30N 34°48' E 139°51'24512.7
2015-Jun-29 14:12N 34°02' E 134°59'1015.1
2015-Jun-29 13:33N 34°11' E 134°59'1514.5
2015-Jun-29 12:29N 34°27' E 135°01'1010.6
2015-Jun-29 11:31N 34°37' E 134°58'  

Dump ship's entire track history